createdAt,value
2022-08-26T00:00:08.424Z,45.6
2022-08-26T00:05:08.161Z,45.68
2022-08-26T00:10:08.202Z,45.74
2022-08-26T00:15:08.897Z,45.88
2022-08-26T00:20:08.657Z,45.9
2022-08-26T00:25:08.381Z,46.03
2022-08-26T00:30:07.766Z,46.12
2022-08-26T00:35:08.457Z,46.23
2022-08-26T00:40:08.152Z,46.28
2022-08-26T00:45:11.597Z,46.41
2022-08-26T00:50:08.520Z,46.45
2022-08-26T00:55:08.416Z,46.58
2022-08-26T01:00:08.079Z,46.67
2022-08-26T01:05:08.110Z,46.72
2022-08-26T01:10:07.815Z,46.82
2022-08-26T01:15:08.486Z,46.9
2022-08-26T01:20:07.752Z,47.02
2022-08-26T01:25:08.494Z,47.09
2022-08-26T01:30:08.220Z,47.18
2022-08-26T01:35:07.902Z,47.26
2022-08-26T01:40:08.684Z,47.33
2022-08-26T01:45:08.423Z,47.33
2022-08-26T01:50:08.094Z,47.33
2022-08-26T01:55:07.818Z,47.6
2022-08-26T02:00:18.636Z,47.66
2022-08-26T02:05:08.358Z,47.75
2022-08-26T02:10:08.028Z,47.86
2022-08-26T02:15:08.204Z,47.88
2022-08-26T02:20:07.819Z,48.0
2022-08-26T02:25:08.117Z,48.06
2022-08-26T02:30:08.142Z,48.13
2022-08-26T02:35:07.840Z,48.2
2022-08-26T02:40:08.589Z,48.3
2022-08-26T02:45:08.314Z,48.33
2022-08-26T02:50:08.134Z,48.39
2022-08-26T02:55:07.842Z,48.45
2022-08-26T03:00:08.536Z,48.54
2022-08-26T03:05:08.221Z,48.58
2022-08-26T03:10:08.647Z,48.66
2022-08-26T03:15:16.035Z,48.71
2022-08-26T03:20:07.758Z,48.77
2022-08-26T03:25:08.487Z,48.83
2022-08-26T03:30:08.575Z,48.88
2022-08-26T03:35:08.529Z,48.88
2022-08-26T03:40:08.330Z,49.0
2022-08-26T03:45:08.284Z,49.08
2022-08-26T03:50:09.408Z,49.12
2022-08-26T03:55:08.435Z,49.18
2022-08-26T04:00:08.121Z,49.23
2022-08-26T04:05:02.474Z,49.26
2022-08-26T04:10:02.511Z,49.31
2022-08-26T04:15:04.144Z,49.34
2022-08-26T04:20:02.963Z,49.38
2022-08-26T04:25:01.935Z,49.45
2022-08-26T04:30:03.173Z,49.49
2022-08-26T04:35:02.617Z,49.51
2022-08-26T04:40:03.213Z,49.54
2022-08-26T04:45:05.880Z,49.61
2022-08-26T04:50:02.214Z,49.64
2022-08-26T04:55:02.722Z,49.7
2022-08-26T05:00:03.018Z,49.77
2022-08-26T05:05:02.924Z,49.78
2022-08-26T05:10:02.611Z,49.86
2022-08-26T05:15:02.615Z,49.85
2022-08-26T05:20:02.152Z,49.93
2022-08-26T05:25:02.249Z,49.96
2022-08-26T05:30:03.265Z,50.03
2022-08-26T05:35:02.069Z,50.13
2022-08-26T05:40:03.349Z,50.19
2022-08-26T05:45:03.126Z,50.24
2022-08-26T05:50:02.265Z,50.31
2022-08-26T05:55:02.794Z,50.32
2022-08-26T06:00:02.791Z,50.43
2022-08-26T06:05:02.872Z,50.45
2022-08-26T06:10:30.498Z,50.52
2022-08-26T06:15:02.549Z,50.52
2022-08-26T06:20:02.220Z,50.61
2022-08-26T06:25:02.463Z,50.63
2022-08-26T06:30:03.109Z,50.69
2022-08-26T06:35:03.012Z,50.71
2022-08-26T06:40:02.483Z,50.78
2022-08-26T06:45:02.735Z,50.81
2022-08-26T06:50:02.377Z,50.87
2022-08-26T06:55:02.602Z,50.89
2022-08-26T07:00:02.835Z,50.94
2022-08-26T07:05:01.727Z,50.98
2022-08-26T07:10:03.088Z,51.12
2022-08-26T07:15:02.518Z,51.06
2022-08-26T07:20:02.819Z,51.15
2022-08-26T07:25:03.080Z,51.15
2022-08-26T07:30:02.716Z,51.28
2022-08-26T07:35:02.816Z,51.28
2022-08-26T07:40:02.872Z,51.27
2022-08-26T07:45:03.290Z,51.31
2022-08-26T07:50:02.938Z,51.35
2022-08-26T07:55:02.849Z,51.38
2022-08-26T08:00:02.889Z,51.33
2022-08-26T08:05:03.258Z,51.34
2022-08-26T08:10:05.587Z,51.39
2022-08-26T08:15:02.314Z,51.42
2022-08-26T08:20:03.034Z,51.4
2022-08-26T08:25:02.982Z,51.44
2022-08-26T08:30:02.509Z,51.47
2022-08-26T08:35:02.844Z,51.49
2022-08-26T08:40:02.880Z,51.55
2022-08-26T08:45:09.520Z,51.61
2022-08-26T08:50:03.657Z,51.59
2022-08-26T08:55:02.532Z,51.59
2022-08-26T09:00:02.646Z,51.66
2022-08-26T09:05:02.641Z,51.65
2022-08-26T09:10:02.970Z,51.63
2022-08-26T09:15:02.046Z,51.62
2022-08-26T09:20:02.450Z,51.63
2022-08-26T09:25:02.594Z,51.68
2022-08-26T09:30:03.141Z,51.66
2022-08-26T09:35:02.168Z,51.66
2022-08-26T09:40:02.534Z,51.69
2022-08-26T09:45:02.489Z,51.69
2022-08-26T09:50:02.952Z,51.73
2022-08-26T09:55:05.787Z,51.71
2022-08-26T10:00:03.144Z,51.67
2022-08-26T10:05:09.001Z,51.69
2022-08-26T10:10:03.115Z,51.64
2022-08-26T10:15:02.354Z,51.62
2022-08-26T10:20:02.942Z,51.57
2022-08-26T10:25:02.778Z,51.59
2022-08-26T10:30:02.927Z,51.58
2022-08-26T10:35:03.275Z,51.58
2022-08-26T10:40:02.546Z,51.56
2022-08-26T10:45:03.130Z,51.55
2022-08-26T10:50:03.659Z,51.54
2022-08-26T10:55:09.320Z,51.52
2022-08-26T11:00:02.749Z,51.54
2022-08-26T11:05:02.424Z,51.54
2022-08-26T11:10:02.538Z,51.51
2022-08-26T11:15:02.357Z,51.48
2022-08-26T11:20:08.944Z,51.46
2022-08-26T11:25:02.889Z,51.46
2022-08-26T11:30:02.958Z,51.4
2022-08-26T11:35:01.846Z,51.41
2022-08-26T11:40:03.166Z,51.42
2022-08-26T11:45:05.413Z,51.44
2022-08-26T11:50:02.891Z,51.46
2022-08-26T11:55:03.027Z,51.46
2022-08-26T12:00:01.912Z,51.52
2022-08-26T12:05:03.306Z,51.5
2022-08-26T12:10:02.476Z,51.5
2022-08-26T12:15:02.942Z,51.46
2022-08-26T12:20:02.537Z,51.46
2022-08-26T12:25:02.728Z,51.5
2022-08-26T12:30:02.985Z,51.53
2022-08-26T12:35:08.114Z,51.52
2022-08-26T12:40:02.424Z,51.55
2022-08-26T12:45:02.404Z,51.53
2022-08-26T12:50:12.445Z,51.55
2022-08-26T12:55:02.593Z,51.55
2022-08-26T13:00:03.067Z,51.52
2022-08-26T13:05:02.432Z,51.53
2022-08-26T13:10:02.859Z,51.52
2022-08-26T13:15:03.317Z,51.52
2022-08-26T13:20:04.106Z,51.54
2022-08-26T13:25:02.689Z,51.56
2022-08-26T13:30:02.682Z,51.55
2022-08-26T13:35:05.954Z,51.59
2022-08-26T13:40:02.490Z,51.58
2022-08-26T13:45:02.929Z,51.62
2022-08-26T13:50:03.286Z,51.67
2022-08-26T13:55:02.457Z,51.68
2022-08-26T14:00:02.514Z,51.74
2022-08-26T14:05:02.663Z,51.77
2022-08-26T14:10:02.964Z,51.82
2022-08-26T14:15:02.222Z,51.86
2022-08-26T14:20:02.551Z,51.91
2022-08-26T14:25:02.660Z,51.95
2022-08-26T14:30:02.987Z,51.99
2022-08-26T14:35:02.019Z,52.0
2022-08-26T14:40:02.815Z,52.08
2022-08-26T14:45:03.009Z,52.11
2022-08-26T14:50:02.603Z,52.16
2022-08-26T14:55:02.626Z,52.2
2022-08-26T15:00:02.634Z,52.27
2022-08-26T15:05:03.034Z,52.28
2022-08-26T15:10:01.949Z,52.33
2022-08-26T15:15:02.287Z,52.37
2022-08-26T15:20:02.701Z,52.39
2022-08-26T15:25:03.183Z,52.44
2022-08-26T15:30:02.318Z,52.49
2022-08-26T15:35:06.800Z,52.54
2022-08-26T15:40:03.108Z,52.56
2022-08-26T15:45:02.213Z,52.58
2022-08-26T15:50:02.505Z,52.63
2022-08-26T16:00:02.363Z,52.66
2022-08-26T16:05:02.791Z,52.66
2022-08-26T16:10:03.037Z,52.69
2022-08-26T16:15:02.094Z,52.69
2022-08-26T16:20:02.290Z,52.7
2022-08-26T16:25:02.477Z,52.71
2022-08-26T16:30:02.672Z,52.76
2022-08-26T16:35:02.645Z,52.75
2022-08-26T16:40:02.762Z,52.78
2022-08-26T16:45:02.993Z,52.82
2022-08-26T16:50:03.806Z,52.83
2022-08-26T16:55:03.244Z,52.83
2022-08-26T17:00:02.824Z,52.85
2022-08-26T17:05:03.014Z,52.87
2022-08-26T17:10:02.102Z,52.9
2022-08-26T17:15:02.076Z,52.93
2022-08-26T17:20:02.283Z,53.0
2022-08-26T17:25:02.090Z,53.02
2022-08-26T17:30:01.903Z,53.08
2022-08-26T17:35:02.709Z,53.12
2022-08-26T17:40:02.600Z,53.19
2022-08-26T17:45:02.468Z,53.23
2022-08-26T17:50:02.247Z,53.27
2022-08-26T17:55:02.100Z,53.28
2022-08-26T18:00:02.005Z,53.31
2022-08-26T18:05:01.950Z,53.34
2022-08-26T18:10:01.877Z,53.35
2022-08-26T18:15:02.754Z,53.37
2022-08-26T18:20:02.693Z,53.37
2022-08-26T18:25:02.615Z,53.37
2022-08-26T18:30:02.558Z,53.42
2022-08-26T18:35:02.458Z,53.42
2022-08-26T18:40:02.337Z,53.44
2022-08-26T18:45:01.824Z,53.46
2022-08-26T18:50:02.727Z,53.47
2022-08-26T18:55:02.588Z,53.5
2022-08-26T19:00:02.485Z,53.51
2022-08-26T19:05:02.341Z,53.53
2022-08-26T19:10:02.152Z,53.58
2022-08-26T19:15:02.156Z,53.59
2022-08-26T19:20:02.085Z,53.61
2022-08-26T19:25:01.854Z,53.64
2022-08-26T19:30:02.736Z,53.68
2022-08-26T19:35:02.547Z,53.71
2022-08-26T19:40:02.502Z,53.71
2022-08-26T19:45:02.340Z,53.75
2022-08-26T19:50:02.170Z,53.75
2022-08-26T19:55:02.080Z,53.76
2022-08-26T20:00:01.904Z,53.78
2022-08-26T20:05:02.693Z,53.81
2022-08-26T20:10:02.464Z,53.82
2022-08-26T20:15:02.271Z,53.82
2022-08-26T20:20:02.157Z,53.86
2022-08-26T20:25:02.086Z,53.89
2022-08-26T20:30:01.910Z,53.89
2022-08-26T20:35:08.596Z,53.91
2022-08-26T20:40:08.354Z,53.94
2022-08-26T20:45:08.150Z,53.96
2022-08-26T20:50:07.860Z,53.96
2022-08-26T20:55:08.592Z,53.96
2022-08-26T21:00:08.835Z,54.01
2022-08-26T21:05:08.589Z,54.01
2022-08-26T21:10:08.551Z,54.04
2022-08-26T21:15:08.276Z,54.04
2022-08-26T21:20:08.000Z,54.05
2022-08-26T21:25:07.716Z,54.09
2022-08-26T21:30:08.398Z,54.08
2022-08-26T21:35:08.090Z,54.09
2022-08-26T21:40:07.833Z,54.12
2022-08-26T21:45:08.549Z,54.13
2022-08-26T21:50:08.247Z,54.17
2022-08-26T21:55:08.926Z,54.17
2022-08-26T22:00:07.949Z,54.19
2022-08-26T22:05:07.641Z,54.2
2022-08-26T22:10:08.338Z,54.23
2022-08-26T22:15:08.042Z,54.23
2022-08-26T22:20:07.744Z,54.25
2022-08-26T22:25:08.433Z,54.25
2022-08-26T22:30:08.146Z,54.28
2022-08-26T22:35:11.287Z,54.31
2022-08-26T22:40:08.333Z,54.32
2022-08-26T22:45:08.112Z,54.31
2022-08-26T22:50:08.052Z,54.34
2022-08-26T22:55:07.769Z,54.33
2022-08-26T23:01:01.288Z,54.33
2022-08-26T23:05:07.833Z,54.35
2022-08-26T23:10:08.562Z,54.35
2022-08-26T23:15:08.276Z,54.37
2022-08-26T23:20:07.970Z,54.38
2022-08-26T23:25:07.896Z,54.38
2022-08-26T23:30:08.622Z,54.4
2022-08-26T23:35:08.290Z,54.4
2022-08-26T23:40:08.314Z,54.38
2022-08-26T23:45:08.116Z,54.39
2022-08-26T23:50:07.809Z,54.4
2022-08-26T23:55:08.495Z,54.42
